Salisbury Beach, Massachusetts
Current Conditions -  °F | °C
As of 7:54 AM on Tuesday 21 Oct 2014 (Local Time) from KLWM Reporting Station
Overcast Overcast  
Wind Chill: 44°   Ceiling: 5500
Heat Index: 46°   Visibility: 10mi
Dew Point: 43°   Wind: 5mph
Humidity: 89%   Direction: 20°NNE
Pressure: 30"   Gusts: NA
Location:  42.8501°N, 70.8633°W
Report Text: KLWM 211154Z 02004KT 10SM OVC055 08/06 A3000 RMK AO2 SLP160 T00780061 10089 20067 55001
Loading
Personal Weather Stations






























Interactive Weather Map
Tropical Storm Tracking
New forecast layout! Learn more

10-Day Weather Forecast

Advertisements
Track Severe Weather on mobile